Time;durP1;ratioP1;P1;durP2;ratioP2;P2;SDS_P1;SDS_P2;PMS_P1;PMS_P2;Temp;Humidity;BMP_temperature;BMP_pressure;BME280_temperature;BME280_humidity;BME280_pressure;Samples;Min_cycle;Max_cycle;Signal;HPM_P1;HPM_P2
2022/03/19 00:00:47;;;;;;;8.20;4.20;;;;;;;18.98;52.76;102391.44;5124216;27;20180;-58
2022/03/19 00:03:12;;;;;;;8.03;4.07;;;;;;;18.97;52.52;102386.84;5132653;27;20168;-58
2022/03/19 00:05:38;;;;;;;7.20;4.10;;;;;;;18.97;52.74;102384.00;5132381;27;20640;-57
2022/03/19 00:08:04;;;;;;;7.93;4.10;;;;;;;18.95;52.88;102382.63;5132755;27;20248;-58
2022/03/19 00:10:29;;;;;;;11.23;3.90;;;;;;;18.98;52.69;102388.56;5132020;27;20410;-58
2022/03/19 00:12:55;;;;;;;6.70;3.37;;;;;;;18.97;52.39;102386.84;5132598;27;20252;-58
2022/03/19 00:15:20;;;;;;;6.47;3.80;;;;;;;18.96;52.80;102370.88;5128779;27;20172;-58
2022/03/19 00:17:46;;;;;;;7.93;3.90;;;;;;;18.97;52.41;102374.59;5125160;27;20176;-58
2022/03/19 00:20:11;;;;;;;5.57;3.63;;;;;;;18.97;52.66;102375.41;5131416;27;20583;-58
2022/03/19 00:22:37;;;;;;;6.30;3.17;;;;;;;18.95;52.77;102377.78;5121703;27;20186;-58
2022/03/19 00:25:03;;;;;;;6.30;3.87;;;;;;;18.95;52.68;102374.91;5076284;28;20178;-58
2022/03/19 00:27:29;;;;;;;6.80;3.90;;;;;;;18.96;52.56;102376.59;5111637;28;20173;-57
2022/03/19 00:29:55;;;;;;;5.90;3.43;;;;;;;18.97;52.47;102381.13;5111026;28;20813;-58
2022/03/19 00:32:20;;;;;;;8.33;4.00;;;;;;;18.96;52.43;102379.44;5113914;27;20419;-58
2022/03/19 00:34:46;;;;;;;6.90;3.80;;;;;;;18.95;52.90;102376.91;5111919;28;20192;-58
2022/03/19 00:37:12;;;;;;;8.20;4.07;;;;;;;18.98;52.79;102382.00;5111459;28;20204;-58
2022/03/19 00:39:37;;;;;;;5.73;3.70;;;;;;;18.96;52.84;102376.59;5111132;28;20416;-58
2022/03/19 00:42:03;;;;;;;5.70;3.97;;;;;;;18.95;52.69;102369.19;5114057;27;20170;-58
2022/03/19 00:44:28;;;;;;;5.93;4.00;;;;;;;18.94;52.64;102358.91;5115187;27;20583;-57
2022/03/19 00:46:54;;;;;;;8.37;4.00;;;;;;;18.93;52.50;102368.69;5131373;27;20725;-58
2022/03/19 00:49:19;;;;;;;6.73;4.10;;;;;;;18.91;52.77;102376.75;5131550;27;20169;-58
2022/03/19 00:51:45;;;;;;;9.10;3.90;;;;;;;18.95;52.82;102372.03;5131506;27;20221;-59
2022/03/19 00:54:12;;;;;;;7.97;4.30;;;;;;;18.94;52.69;102376.09;5111063;28;20174;-59
2022/03/19 00:56:37;;;;;;;7.80;3.90;;;;;;;18.95;52.58;102372.03;5111324;28;20640;-57
2022/03/19 00:59:03;;;;;;;8.10;4.27;;;;;;;18.94;52.67;102373.22;5110769;28;20427;-58
2022/03/19 01:01:28;;;;;;;6.40;3.60;;;;;;;18.93;52.69;102368.69;5129471;27;20256;-58
2022/03/19 01:03:54;;;;;;;7.60;4.10;;;;;;;18.96;52.67;102364.31;5100186;27;20197;-57
2022/03/19 01:06:20;;;;;;;7.20;3.90;;;;;;;18.93;52.79;102374.41;5131176;27;20213;-58
2022/03/19 01:08:45;;;;;;;5.30;3.50;;;;;;;18.94;52.71;102372.38;5131461;27;20169;-58
2022/03/19 01:11:11;;;;;;;4.77;3.30;;;;;;;18.96;52.62;102367.19;5131227;27;20173;-58
2022/03/19 01:13:36;;;;;;;8.47;4.13;;;;;;;18.94;52.77;102370.38;5131336;27;20176;-59
2022/03/19 01:16:02;;;;;;;13.97;4.40;;;;;;;18.92;52.90;102366.97;5130771;27;20173;-58
2022/03/19 01:18:28;;;;;;;6.80;3.43;;;;;;;18.96;52.27;102364.31;5111048;28;20262;-58
2022/03/19 01:20:54;;;;;;;6.60;3.53;;;;;;;18.96;52.65;102361.44;5110179;28;20420;-58
2022/03/19 01:23:19;;;;;;;6.77;3.67;;;;;;;18.97;52.22;102369.69;5110716;27;20954;-58
2022/03/19 01:25:45;;;;;;;6.57;3.60;;;;;;;18.94;52.54;102358.91;5112254;27;20559;-58
2022/03/19 01:28:10;;;;;;;6.10;3.77;;;;;;;18.98;52.79;102354.22;5113443;27;20181;-58
2022/03/19 01:30:36;;;;;;;5.93;3.70;;;;;;;18.96;52.49;102364.31;5122505;27;20181;-58
2022/03/19 01:33:01;;;;;;;5.60;3.43;;;;;;;18.94;52.47;102356.06;5130178;27;20208;-58
2022/03/19 01:35:27;;;;;;;7.17;3.57;;;;;;;18.98;52.35;102361.94;5130599;27;20187;-58
2022/03/19 01:37:52;;;;;;;7.00;4.07;;;;;;;18.95;52.47;102363.47;5131031;27;20172;-58
2022/03/19 01:40:18;;;;;;;6.27;3.93;;;;;;;18.97;52.10;102355.38;5130483;27;20254;-58
2022/03/19 01:42:45;;;;;;;6.17;3.73;;;;;;;18.97;52.37;102351.69;5112526;27;20264;-58
2022/03/19 01:45:13;;;;;;;5.50;3.60;;;;;;;18.97;52.38;102352.50;5130586;27;20183;-58
2022/03/19 01:47:38;;;;;;;5.77;4.10;;;;;;;18.96;52.26;102361.44;5112795;27;20467;-58
2022/03/19 01:50:04;;;;;;;7.03;3.87;;;;;;;18.97;52.49;102355.38;5130456;27;20418;-58
2022/03/19 01:52:30;;;;;;;6.87;3.93;;;;;;;18.96;52.25;102356.56;5121539;27;20697;-58
2022/03/19 01:54:55;;;;;;;7.13;3.87;;;;;;;18.96;52.31;102350.00;5110214;28;20411;-57
2022/03/19 01:57:29;;;;;;;6.10;3.57;;;;;;;18.93;52.41;102356.38;5110585;28;20202;-58
2022/03/19 01:59:56;;;;;;;6.37;3.83;;;;;;;18.99;52.15;102349.31;5116017;27;21030;-58
2022/03/19 02:02:24;;;;;;;5.27;3.80;;;;;;;18.94;52.46;102355.19;5130874;27;20415;-58
2022/03/19 02:04:49;;;;;;;6.63;3.90;;;;;;;18.96;52.37;102345.09;5130564;27;21052;-58
2022/03/19 02:07:15;;;;;;;6.70;4.57;;;;;;;18.95;52.17;102342.56;5130453;27;20492;-58
2022/03/19 02:09:40;;;;;;;7.37;4.57;;;;;;;18.95;52.47;102331.13;5130619;27;20169;-58
2022/03/19 02:12:06;;;;;;;6.77;3.60;;;;;;;18.97;52.33;102335.34;5130319;28;20623;-58
2022/03/19 02:14:35;;;;;;;6.60;4.30;;;;;;;18.96;52.33;102336.50;5130316;28;21100;-58
2022/03/19 02:17:01;;;;;;;6.93;4.43;;;;;;;18.99;52.26;102341.59;5122459;28;20786;-58
2022/03/19 02:19:27;;;;;;;5.47;3.57;;;;;;;18.94;51.96;102344.59;5109704;28;20496;-58
2022/03/19 02:21:52;;;;;;;6.03;3.70;;;;;;;18.90;52.52;102337.84;5108508;28;20822;-58
2022/03/19 02:27:02;;;;;;;6.27;4.30;;;;;;;18.92;52.27;102340.41;5109474;28;20208;-58
2022/03/19 02:29:28;;;;;;;7.93;4.30;;;;;;;18.93;52.36;102345.78;5109294;28;20417;-57
2022/03/19 02:31:55;;;;;;;8.80;4.53;;;;;;;18.95;52.28;102343.41;5111974;28;20177;-58
2022/03/19 02:34:20;;;;;;;6.40;3.97;;;;;;;18.96;52.36;102350.00;5109888;28;20185;-58
2022/03/19 02:36:46;;;;;;;5.30;3.70;;;;;;;18.96;52.15;102336.50;5111113;28;20420;-58
2022/03/19 02:39:32;;;;;;;5.77;4.10;;;;;;;18.93;52.44;102340.06;5130323;28;20613;-58
2022/03/19 02:42:02;;;;;;;5.87;4.37;;;;;;;18.94;52.35;102333.16;5126091;27;20184;-58
2022/03/19 02:44:27;;;;;;;7.70;4.10;;;;;;;18.93;52.33;102340.06;5113039;28;20462;-57
2022/03/19 02:46:54;;;;;;;5.20;4.13;;;;;;;18.97;52.11;102335.34;5113149;28;20495;-58
2022/03/19 02:49:20;;;;;;;7.50;4.40;;;;;;;18.94;52.03;102336.03;5113309;28;20201;-58
2022/03/19 02:51:46;;;;;;;6.30;4.23;;;;;;;18.93;52.34;102337.19;5116096;27;20500;-58
2022/03/19 02:54:14;;;;;;;7.37;4.20;;;;;;;18.93;52.31;102333.47;5113859;28;20177;-58
2022/03/19 02:56:41;;;;;;;6.60;4.40;;;;;;;18.95;52.22;102336.84;5113310;28;20498;-58
2022/03/19 02:59:08;;;;;;;4.70;3.57;;;;;;;18.94;52.15;102332.31;5112822;28;20869;-57
2022/03/19 03:01:34;;;;;;;5.63;3.90;;;;;;;18.92;52.20;102329.78;5133356;27;20426;-58
2022/03/19 03:03:59;;;;;;;6.40;3.93;;;;;;;18.93;52.39;102331.47;5133834;27;20525;-58
2022/03/19 03:06:24;;;;;;;5.57;3.20;;;;;;;18.97;51.97;102326.75;5133858;27;20660;-58
2022/03/19 03:08:50;;;;;;;6.20;4.20;;;;;;;18.92;52.32;102324.03;5114888;27;20200;-58
2022/03/19 03:11:15;;;;;;;7.60;4.00;;;;;;;18.93;52.10;102322.88;5133495;27;20635;-58
2022/03/19 03:13:41;;;;;;;8.13;4.03;;;;;;;18.93;52.25;102322.88;5133803;27;20165;-57
2022/03/19 03:16:06;;;;;;;5.30;3.83;;;;;;;18.93;52.30;102317.16;5133443;27;20173;-57
2022/03/19 03:18:32;;;;;;;6.73;3.90;;;;;;;18.94;52.12;102318.00;5115061;27;20226;-58
2022/03/19 03:20:58;;;;;;;8.50;4.50;;;;;;;18.93;52.42;102316.31;5112286;27;20211;-58
2022/03/19 03:23:26;;;;;;;5.40;3.63;;;;;;;18.95;52.05;102323.38;5117433;27;20224;-58
2022/03/19 03:25:52;;;;;;;6.67;4.40;;;;;;;18.94;52.32;102312.25;5112452;28;20791;-57
2022/03/19 03:28:17;;;;;;;5.90;4.23;;;;;;;18.94;52.14;102313.13;5112797;28;20419;-58
2022/03/19 03:30:42;;;;;;;6.77;4.20;;;;;;;18.93;52.03;102311.44;5112221;28;20178;-58
2022/03/19 03:33:08;;;;;;;5.90;3.97;;;;;;;18.94;52.19;102313.13;5115769;27;20197;-58
2022/03/19 03:35:33;;;;;;;5.67;3.90;;;;;;;18.94;52.28;102318.84;5112863;28;20170;-58
2022/03/19 03:37:59;;;;;;;5.37;3.90;;;;;;;18.94;52.17;102307.41;5112496;28;20182;-58
2022/03/19 03:40:25;;;;;;;5.03;3.40;;;;;;;18.94;52.24;102306.53;5112504;28;20256;-58
2022/03/19 03:42:50;;;;;;;5.53;4.07;;;;;;;18.95;51.98;102308.22;5112456;28;20844;-58
2022/03/19 03:45:16;;;;;;;7.47;4.13;;;;;;;18.95;52.31;102314.81;5112274;28;20204;-58
2022/03/19 03:47:41;;;;;;;5.80;3.60;;;;;;;18.92;51.96;102304.00;5112677;28;20174;-58
2022/03/19 03:50:07;;;;;;;5.30;4.07;;;;;;;18.90;52.16;102312.09;5112484;28;20193;-58
2022/03/19 03:52:33;;;;;;;5.77;4.13;;;;;;;18.93;52.15;102310.59;5113562;27;20182;-58
2022/03/19 03:54:58;;;;;;;8.27;4.30;;;;;;;18.94;52.41;102304.53;5111577;28;20427;-58
2022/03/19 03:57:23;;;;;;;4.90;3.50;;;;;;;18.93;51.88;102294.28;5112198;28;20165;-58
2022/03/19 03:59:50;;;;;;;6.50;4.10;;;;;;;18.91;52.19;102290.06;5117176;27;20222;-58
2022/03/19 04:02:16;;;;;;;8.00;4.60;;;;;;;18.95;52.00;102293.91;5132473;27;20176;-58
2022/03/19 04:04:41;;;;;;;7.43;3.97;;;;;;;18.92;52.20;102283.97;5132925;27;20470;-58
2022/03/19 04:07:07;;;;;;;8.03;4.53;;;;;;;18.93;52.45;102294.28;5132630;27;20660;-58
2022/03/19 04:09:32;;;;;;;4.90;3.83;;;;;;;18.91;52.38;102295.78;5132474;27;20180;-58
2022/03/19 04:11:58;;;;;;;6.70;4.63;;;;;;;18.94;51.89;102286.50;5132705;27;20173;-58
2022/03/19 04:14:24;;;;;;;7.03;4.60;;;;;;;18.92;52.10;102291.72;5132367;27;20181;-58
2022/03/19 04:16:49;;;;;;;5.67;3.97;;;;;;;18.91;52.14;102287.19;5125592;27;20894;-58
2022/03/19 04:19:15;;;;;;;6.40;4.00;;;;;;;18.91;51.93;102290.06;5119748;27;20569;-58
2022/03/19 04:21:40;;;;;;;5.67;4.00;;;;;;;18.88;51.97;102285.84;5131743;27;20180;-58
2022/03/19 04:24:06;;;;;;;6.77;4.17;;;;;;;18.91;51.94;102290.88;5114169;27;20182;-58
2022/03/19 04:26:31;;;;;;;5.60;4.07;;;;;;;18.90;52.02;102288.34;5111569;28;20242;-58
2022/03/19 04:28:56;;;;;;;5.27;3.80;;;;;;;18.92;52.02;102286.00;5111188;28;20177;-57
2022/03/19 04:31:22;;;;;;;5.93;4.07;;;;;;;18.88;52.17;102291.56;5111575;28;20176;-57
2022/03/19 04:33:48;;;;;;;7.60;4.10;;;;;;;18.89;51.95;102280.94;5111772;28;20181;-58
2022/03/19 04:36:33;;;;;;;5.97;4.30;;;;;;;18.87;52.18;102283.31;5111515;28;20166;-58
2022/03/19 04:38:59;;;;;;;6.40;4.07;;;;;;;18.85;52.17;102280.78;5110968;28;20165;-57
2022/03/19 04:41:25;;;;;;;6.53;4.57;;;;;;;18.88;52.16;102279.28;5114813;27;20451;-57
2022/03/19 04:43:50;;;;;;;5.70;4.00;;;;;;;18.90;52.12;102266.31;5111396;28;20420;-57
2022/03/19 04:46:16;;;;;;;6.43;4.00;;;;;;;18.90;52.04;102277.75;5111310;28;20242;-57
2022/03/19 04:48:45;;;;;;;5.80;3.97;;;;;;;18.92;51.81;102269.66;5114280;27;20184;-58
2022/03/19 04:51:14;;;;;;;6.43;4.33;;;;;;;18.87;52.15;102278.41;5111072;28;20177;-58
2022/03/19 04:53:40;;;;;;;6.00;3.93;;;;;;;18.93;51.70;102282.81;5111277;28;20510;-58
2022/03/19 04:56:06;;;;;;;5.67;4.10;;;;;;;18.92;51.75;102281.09;5111266;28;20396;-58
2022/03/19 04:58:34;;;;;;;7.63;4.67;;;;;;;18.89;51.77;102278.94;5111270;28;20911;-59
2022/03/19 05:01:00;;;;;;;5.30;4.40;;;;;;;18.89;51.80;102275.22;5106567;27;20179;-58
2022/03/19 05:03:25;;;;;;;6.23;4.37;;;;;;;18.91;51.71;102281.47;5131257;27;20756;-58
2022/03/19 05:05:51;;;;;;;5.50;3.97;;;;;;;18.93;51.91;102277.09;5130331;27;20231;-58
2022/03/19 05:08:17;;;;;;;8.63;4.70;;;;;;;18.95;51.89;102273.88;5131486;27;20257;-58
2022/03/19 05:13:27;;;;;;;6.23;4.37;;;;;;;18.92;51.81;102272.53;5131627;27;20398;-58
2022/03/19 05:15:53;;;;;;;6.13;3.87;;;;;;;18.91;51.80;102272.88;5113054;27;20402;-57
2022/03/19 05:18:19;;;;;;;6.53;4.10;;;;;;;18.90;51.89;102266.31;5117543;27;20251;-57
2022/03/19 05:20:45;;;;;;;5.70;4.40;;;;;;;18.90;51.90;102277.75;5127201;27;20181;-58
2022/03/19 05:23:10;;;;;;;6.70;4.60;;;;;;;18.85;52.24;102275.06;5119032;27;20910;-58
2022/03/19 05:25:36;;;;;;;4.77;3.80;;;;;;;18.91;51.89;102273.72;5110422;28;20189;-58
2022/03/19 05:28:01;;;;;;;5.00;3.90;;;;;;;18.89;51.99;102269.50;5110777;28;20973;-58
2022/03/19 05:30:27;;;;;;;5.73;4.00;;;;;;;18.90;51.86;102276.91;5110932;27;20177;-57
2022/03/19 05:32:52;;;;;;;6.90;4.10;;;;;;;18.85;52.01;102268.47;5112128;27;20174;-57
2022/03/19 05:35:18;;;;;;;6.47;4.33;;;;;;;18.95;51.61;102271.00;5110114;28;20177;-58
2022/03/19 05:37:44;;;;;;;5.87;3.77;;;;;;;18.93;51.66;102264.78;5091923;28;20223;-57
2022/03/19 05:40:11;;;;;;;6.13;4.90;;;;;;;18.90;52.05;102262.59;5110455;28;20189;-58
2022/03/19 05:42:36;;;;;;;6.20;4.57;;;;;;;18.93;51.84;102265.66;5092413;28;20420;-58
2022/03/19 05:45:02;;;;;;;8.83;4.37;;;;;;;18.93;51.63;102259.91;5110439;28;20846;-58
2022/03/19 05:47:28;;;;;;;5.93;4.63;;;;;;;18.93;51.84;102259.06;5110043;28;20200;-57
2022/03/19 05:49:53;;;;;;;6.40;4.30;;;;;;;18.88;52.00;102257.22;5109768;28;20177;-58
2022/03/19 05:52:19;;;;;;;6.40;4.60;;;;;;;18.94;51.64;102255.03;5109900;28;20684;-58
2022/03/19 05:54:44;;;;;;;5.57;4.17;;;;;;;18.94;51.80;102257.88;5092309;28;20590;-58
2022/03/19 05:57:09;;;;;;;5.43;3.70;;;;;;;18.92;51.88;102261.06;5110073;28;20165;-58
2022/03/19 05:59:35;;;;;;;6.47;4.57;;;;;;;18.92;51.66;102251.66;5111274;27;20213;-57
2022/03/19 06:02:00;;;;;;;6.57;4.30;;;;;;;18.93;51.87;102259.91;5128490;27;20173;-57
2022/03/19 06:04:26;;;;;;;5.37;4.07;;;;;;;18.90;51.92;102254.84;5130207;27;20548;-58
2022/03/19 06:06:51;;;;;;;7.17;4.07;;;;;;;18.91;51.84;102259.41;5130068;27;20201;-57
2022/03/19 06:09:17;;;;;;;6.97;4.70;;;;;;;18.92;51.74;102252.50;5130201;27;20624;-58
2022/03/19 06:11:44;;;;;;;5.67;4.10;;;;;;;18.91;51.82;102252.84;5130647;27;20156;-58
2022/03/19 06:14:09;;;;;;;5.40;3.90;;;;;;;18.92;51.69;102252.50;5130411;28;20204;-57
2022/03/19 06:16:35;;;;;;;7.40;4.00;;;;;;;18.90;51.79;102252.00;5125735;28;20435;-58
2022/03/19 06:19:00;;;;;;;7.60;4.30;;;;;;;18.92;51.79;102251.66;5111949;28;20226;-58
2022/03/19 06:21:26;;;;;;;7.73;4.40;;;;;;;18.92;51.74;102248.81;5112428;28;20544;-58
2022/03/19 06:23:51;;;;;;;6.50;4.40;;;;;;;18.93;51.78;102253.34;5109569;28;20203;-58
2022/03/19 06:26:18;;;;;;;6.47;4.70;;;;;;;18.93;51.54;102248.47;5109666;28;20197;-57
2022/03/19 06:28:43;;;;;;;6.90;4.60;;;;;;;18.91;51.72;102253.69;5110011;28;20226;-57
2022/03/19 06:31:09;;;;;;;5.70;3.93;;;;;;;18.92;51.57;102243.91;5109858;28;20399;-57
2022/03/19 06:33:35;;;;;;;6.07;4.23;;;;;;;18.91;51.79;102250.00;5109975;28;20173;-56
2022/03/19 06:38:44;;;;;;;5.90;4.30;;;;;;;18.94;51.71;102255.03;5109798;28;20235;-59
2022/03/19 06:41:10;;;;;;;6.83;4.70;;;;;;;18.91;51.74;102247.13;5112112;28;20411;-57
2022/03/19 06:43:35;;;;;;;7.90;5.00;;;;;;;18.91;51.64;102250.00;5109871;28;20174;-57
2022/03/19 06:46:01;;;;;;;5.83;3.97;;;;;;;18.93;51.87;102248.47;5090841;28;20499;-57
2022/03/19 06:48:27;;;;;;;5.63;3.93;;;;;;;18.88;51.77;102251.50;5112038;28;20209;-58
2022/03/19 06:50:54;;;;;;;6.00;3.90;;;;;;;18.89;51.72;102252.31;5111765;28;20978;-57
2022/03/19 06:53:19;;;;;;;8.53;4.10;;;;;;;18.92;52.34;102254.53;5109576;28;20559;-57
2022/03/19 06:55:45;;;;;;;5.43;4.30;;;;;;;18.94;51.81;102258.75;5109205;28;20483;-58
2022/03/19 06:58:10;;;;;;;6.00;4.07;;;;;;;18.93;51.68;102248.47;5110056;28;20173;-58
2022/03/19 07:00:37;;;;;;;6.33;4.43;;;;;;;18.97;51.57;102242.91;5121090;28;20169;-57
2022/03/19 07:03:02;;;;;;;7.17;4.43;;;;;;;18.89;51.80;102252.31;5130221;28;20237;-57
2022/03/19 07:05:28;;;;;;;6.67;5.23;;;;;;;18.89;51.76;102252.31;5129449;28;20469;-58
2022/03/19 07:07:55;;;;;;;6.97;4.43;;;;;;;18.92;51.74;102251.66;5130633;28;20257;-59
2022/03/19 07:10:21;;;;;;;6.53;4.17;;;;;;;18.91;51.78;102247.13;5129768;28;20709;-58
2022/03/19 07:12:47;;;;;;;6.30;4.00;;;;;;;18.91;51.67;102250.00;5129211;28;20418;-58
2022/03/19 07:15:13;;;;;;;5.50;4.17;;;;;;;18.92;51.45;102249.63;5128872;28;20157;-58
2022/03/19 07:17:38;;;;;;;7.23;4.00;;;;;;;18.90;51.82;102249.13;5117509;28;20238;-58
2022/03/19 07:20:04;;;;;;;5.13;4.00;;;;;;;18.94;51.56;102244.44;5109195;28;20403;-57
2022/03/19 07:22:45;;;;;;;6.67;4.50;;;;;;;18.91;51.39;102250.81;5109333;28;20235;-58
2022/03/19 07:25:11;;;;;;;6.93;4.83;;;;;;;18.91;51.64;102252.84;5109459;28;20737;-57
2022/03/19 07:27:36;;;;;;;6.07;4.33;;;;;;;18.91;51.65;102242.22;5112085;28;20454;-58
2022/03/19 07:30:02;;;;;;;6.60;4.87;;;;;;;18.95;51.34;102237.50;5113769;27;20267;-57
2022/03/19 07:32:27;;;;;;;4.90;3.87;;;;;;;18.95;51.61;102245.25;5094393;28;20319;-58
2022/03/19 07:34:54;;;;;;;6.13;4.57;;;;;;;18.91;52.09;102238.53;5112913;28;20178;-58
2022/03/19 07:37:19;;;;;;;5.70;4.37;;;;;;;18.94;51.42;102232.13;5112937;28;20169;-58
2022/03/19 07:39:45;;;;;;;5.47;4.27;;;;;;;18.88;51.59;102230.63;5114801;27;21085;-58
2022/03/19 07:42:10;;;;;;;6.30;4.43;;;;;;;18.91;51.71;102227.91;5113075;28;20203;-58
2022/03/19 07:44:35;;;;;;;7.40;4.77;;;;;;;18.92;51.59;102234.50;5111647;28;20180;-58
2022/03/19 07:47:01;;;;;;;6.10;4.50;;;;;;;18.90;51.79;102236.84;5111931;28;20190;-57
2022/03/19 07:49:26;;;;;;;6.33;4.47;;;;;;;18.88;51.68;102240.06;5112384;28;20177;-59
2022/03/19 07:51:55;;;;;;;5.10;3.97;;;;;;;18.90;51.69;102231.97;5112403;28;20177;-59
2022/03/19 07:54:23;;;;;;;6.37;4.83;;;;;;;18.93;51.25;102231.31;5112368;28;20158;-57
2022/03/19 07:56:51;;;;;;;8.17;5.43;;;;;;;18.91;51.38;102229.94;5112226;28;20419;-58
2022/03/19 07:59:16;;;;;;;6.10;4.40;;;;;;;18.90;51.73;102226.25;5094835;28;20411;-57
2022/03/19 08:01:42;;;;;;;5.43;3.90;;;;;;;18.93;51.66;102236.16;5132977;27;20403;-57
2022/03/19 08:04:07;;;;;;;6.70;4.37;;;;;;;18.91;51.74;102232.81;5132892;27;20201;-58
2022/03/19 08:06:33;;;;;;;5.80;4.40;;;;;;;18.89;51.49;102217.97;5132692;27;20196;-58
2022/03/19 08:08:58;;;;;;;6.80;4.53;;;;;;;18.93;51.40;102225.56;5131245;27;20169;-58
2022/03/19 08:11:24;;;;;;;7.07;5.20;;;;;;;18.88;51.66;102222.88;5112889;27;20181;-58
2022/03/19 08:13:49;;;;;;;6.60;4.60;;;;;;;18.92;51.39;102220.19;5111915;28;20170;-58
2022/03/19 08:16:15;;;;;;;6.73;4.73;;;;;;;18.93;51.53;102211.25;5113252;27;20169;-58
2022/03/19 08:18:40;;;;;;;7.33;4.80;;;;;;;18.92;51.32;102215.28;5132978;27;20196;-58
2022/03/19 08:21:06;;;;;;;7.83;5.10;;;;;;;18.95;51.43;102211.75;5132001;27;20230;-57
2022/03/19 08:23:32;;;;;;;7.47;5.20;;;;;;;18.92;51.47;102209.56;5117313;27;20923;-58
2022/03/19 08:25:57;;;;;;;6.53;4.67;;;;;;;18.93;51.58;102210.41;5114280;27;20672;-58
2022/03/19 08:28:23;;;;;;;5.63;3.93;;;;;;;18.91;51.44;102216.47;5120728;27;20434;-57
2022/03/19 08:30:48;;;;;;;6.97;4.27;;;;;;;18.93;51.68;102213.28;5131567;27;20192;-58
2022/03/19 08:33:14;;;;;;;5.40;4.07;;;;;;;18.93;51.56;102202.69;5129267;27;20180;-59
2022/03/19 08:35:39;;;;;;;5.70;4.37;;;;;;;18.91;51.46;102204.19;5132280;27;20170;-58
2022/03/19 08:40:48;;;;;;;6.17;4.90;;;;;;;18.94;51.66;102209.22;5131368;27;20200;-57
2022/03/19 08:43:15;;;;;;;5.60;4.20;;;;;;;18.91;51.49;102219.31;5131463;27;20432;-58
2022/03/19 08:45:40;;;;;;;6.30;4.63;;;;;;;18.92;51.34;102221.00;5131885;27;20570;-58
2022/03/19 08:48:06;;;;;;;6.73;4.60;;;;;;;18.90;51.53;102206.19;5129024;27;20413;-58
2022/03/19 08:50:31;;;;;;;7.10;4.60;;;;;;;18.90;51.63;102214.78;5119990;27;20170;-57
2022/03/19 08:52:57;;;;;;;12.30;7.87;;;;;;;18.76;50.76;102211.25;5107985;27;20233;-61
2022/03/19 08:55:22;;;;;;;32.90;22.10;;;;;;;18.39;46.53;102217.63;5110848;27;20490;-61
2022/03/19 08:57:48;;;;;;;35.53;24.13;;;;;;;18.06;45.82;102219.16;5116557;27;20177;-61
2022/03/19 09:00:14;;;;;;;35.77;24.17;;;;;;;18.19;45.71;102198.19;5121656;27;20185;-61
2022/03/19 09:02:40;;;;;;;32.93;22.60;;;;;;;18.44;46.14;102211.75;5131121;27;20188;-61
2022/03/19 09:05:06;;;;;;;31.73;19.93;;;;;;;18.59;46.20;102205.53;5118667;27;20573;-61
2022/03/19 09:07:31;;;;;;;34.93;20.57;;;;;;;18.74;46.12;102193.59;5120943;27;20301;-62
2022/03/19 09:09:57;;;;;;;33.23;19.80;;;;;;;18.87;45.88;102204.00;5109822;28;20177;-61
2022/03/19 09:12:24;;;;;;;40.93;22.00;;;;;;;19.01;45.46;102198.94;5112176;27;20200;-61
2022/03/19 09:14:49;;;;;;;34.90;20.30;;;;;;;19.04;45.49;102206.88;5131203;27;20191;-60
2022/03/19 09:17:15;;;;;;;30.47;19.80;;;;;;;19.27;45.55;102202.63;5121310;27;20813;-61
2022/03/19 09:19:40;;;;;;;31.67;21.53;;;;;;;19.37;46.13;102198.59;5109701;28;20174;-62
2022/03/19 09:22:06;;;;;;;32.30;20.53;;;;;;;19.34;47.02;102190.66;5119855;27;20178;-60
2022/03/19 09:24:31;;;;;;;31.83;18.73;;;;;;;19.33;47.33;102183.28;5112515;27;20239;-61
2022/03/19 09:26:57;;;;;;;33.67;18.83;;;;;;;19.34;47.89;102205.00;5111609;27;20205;-61
2022/03/19 09:29:23;;;;;;;28.43;18.10;;;;;;;19.32;47.69;102193.03;5129652;27;20187;-61
2022/03/19 09:31:48;;;;;;;34.73;17.10;;;;;;;19.34;47.59;102197.25;5120213;27;20416;-61
2022/03/19 09:34:14;;;;;;;25.77;17.10;;;;;;;19.35;47.88;102193.19;5109163;28;20174;-61
2022/03/19 09:36:41;;;;;;;29.60;16.30;;;;;;;19.39;48.06;102187.63;5109877;28;20524;-61
2022/03/19 09:39:06;;;;;;;29.00;15.80;;;;;;;19.38;48.31;102186.81;5109898;28;20741;-61
2022/03/19 09:41:32;;;;;;;25.60;16.03;;;;;;;19.35;48.08;102176.00;5116878;27;20418;-61
2022/03/19 09:43:58;;;;;;;25.90;16.33;;;;;;;19.33;47.57;102178.41;5110337;28;20204;-61
2022/03/19 09:46:24;;;;;;;25.87;15.00;;;;;;;19.37;47.28;102167.91;5118297;27;20204;-61
2022/03/19 09:48:49;;;;;;;24.53;16.50;;;;;;;19.38;47.61;102165.91;5126909;27;20498;-61
2022/03/19 09:51:15;;;;;;;29.23;15.47;;;;;;;19.49;49.36;102167.22;5124260;27;20231;-61
2022/03/19 09:53:41;;;;;;;26.30;15.73;;;;;;;19.51;49.38;102156.25;5091889;28;20209;-61
2022/03/19 09:56:06;;;;;;;26.07;14.70;;;;;;;19.51;49.57;102157.09;5109876;28;20158;-61
2022/03/19 09:58:33;;;;;;;22.10;13.80;;;;;;;19.59;50.06;102152.50;5119596;27;20181;-61
2022/03/19 10:01:05;;;;;;;24.13;14.20;;;;;;;19.53;50.25;102139.56;5114564;27;20636;-61
2022/03/19 10:03:32;;;;;;;32.70;15.07;;;;;;;19.54;49.11;102127.75;5110258;28;20472;-61
2022/03/19 10:08:57;;;;;;;20.67;13.73;;;;;;;19.58;50.65;102131.63;5110038;28;20427;-61
2022/03/19 10:11:22;;;;;;;22.30;13.60;;;;;;;19.66;50.91;102129.91;5110075;27;20839;-63
2022/03/19 10:13:49;;;;;;;30.10;11.20;;;;;;;19.60;50.91;102126.38;5120495;27;20448;-61
2022/03/19 10:16:19;;;;;;;20.17;11.90;;;;;;;19.56;51.38;102118.84;5105790;28;20251;-61
2022/03/19 10:18:45;;;;;;;19.53;12.80;;;;;;;19.63;51.32;102108.50;5110257;28;20493;-61
2022/03/19 10:21:15;;;;;;;21.27;11.87;;;;;;;19.54;51.42;102104.00;5091117;28;20941;-61
2022/03/19 10:23:41;;;;;;;20.43;12.33;;;;;;;19.55;51.58;102105.66;5113168;28;20181;-61
2022/03/19 10:26:07;;;;;;;20.70;12.43;;;;;;;19.62;51.30;102095.34;5113544;28;20478;-61
2022/03/19 10:28:35;;;;;;;21.73;12.37;;;;;;;19.63;51.50;102099.06;5122579;28;20422;-61
2022/03/19 10:31:01;;;;;;;19.80;12.77;;;;;;;19.60;51.52;102089.13;5129577;28;20175;-61
2022/03/19 10:33:28;;;;;;;18.30;11.40;;;;;;;19.57;51.68;102081.22;5111047;28;20855;-61
2022/03/19 10:36:09;;;;;;;21.40;11.83;;;;;;;19.51;51.03;102091.19;5108538;28;20212;-61
2022/03/19 10:38:42;;;;;;;20.33;11.30;;;;;;;19.44;50.96;102085.19;5114405;28;20945;-61
2022/03/19 10:41:07;;;;;;;19.20;10.90;;;;;;;19.44;50.95;102084.31;5119185;28;20496;-61
2022/03/19 10:43:33;;;;;;;19.20;11.63;;;;;;;19.42;51.00;102084.66;5129983;28;20459;-61
2022/03/19 10:45:58;;;;;;;31.37;11.77;;;;;;;19.45;51.15;102086.84;5126623;28;20190;-61
2022/03/19 10:48:25;;;;;;;20.47;12.27;;;;;;;19.38;50.99;102083.69;5110837;28;20169;-61
2022/03/19 10:50:51;;;;;;;17.87;10.43;;;;;;;19.44;50.84;102088.03;5128540;28;20180;-61
2022/03/19 10:53:17;;;;;;;23.17;11.20;;;;;;;19.45;51.12;102081.13;5110227;28;20423;-61
2022/03/19 10:55:43;;;;;;;22.00;11.73;;;;;;;19.47;51.45;102080.78;5092389;28;20178;-61
2022/03/19 10:58:08;;;;;;;19.40;11.40;;;;;;;19.49;51.27;102066.94;5120380;28;20434;-61
2022/03/19 11:00:35;;;;;;;18.57;12.37;;;;;;;19.62;51.53;102063.81;5111663;28;20170;-63
2022/03/19 11:03:00;;;;;;;19.83;11.20;;;;;;;19.45;51.00;102052.47;5106800;27;20238;-61
2022/03/19 11:05:26;;;;;;;21.57;12.50;;;;;;;19.44;50.43;102064.28;5090769;28;20873;-61
2022/03/19 11:07:51;;;;;;;29.13;14.17;;;;;;;19.37;49.38;102055.38;5092991;28;20178;-61
2022/03/19 11:10:19;;;;;;;23.97;13.23;;;;;;;19.33;48.68;102058.09;5096281;28;20183;-61
2022/03/19 11:12:50;;;;;;;27.77;14.30;;;;;;;19.32;48.17;102050.66;5108612;28;20177;-61
2022/03/19 11:15:15;;;;;;;23.60;13.87;;;;;;;19.24;48.17;102051.56;5103838;28;20416;-61
2022/03/19 11:17:41;;;;;;;29.97;13.83;;;;;;;19.22;47.93;102045.34;5101255;28;20935;-61
2022/03/19 11:20:08;;;;;;;26.10;14.27;;;;;;;19.21;47.78;102035.03;5111000;28;20174;-61
2022/03/19 11:22:50;;;;;;;27.27;13.77;;;;;;;19.20;48.04;102024.78;5104813;28;20251;-61
2022/03/19 11:25:31;;;;;;;33.00;15.27;;;;;;;19.28;47.48;102017.34;5081263;28;20415;-61
2022/03/19 11:28:07;;;;;;;28.60;15.37;;;;;;;19.26;47.41;102017.69;5103377;28;20428;-60
2022/03/19 11:30:38;;;;;;;26.73;14.27;;;;;;;19.34;47.64;102013.97;5094578;28;20523;-62